createdAt,value
2022-09-10T00:00:11.651Z,3.00
2022-09-10T00:01:13.740Z,3.40
2022-09-10T00:02:15.834Z,3.50
2022-09-10T00:03:17.694Z,4.30
2022-09-10T00:04:19.642Z,5.00
2022-09-10T00:05:23.321Z,5.40
2022-09-10T00:06:27.610Z,5.90
2022-09-10T00:07:32.137Z,6.10
2022-09-10T00:08:34.510Z,6.10
2022-09-10T00:09:36.626Z,6.20
2022-09-10T00:10:44.116Z,6.70
2022-09-10T00:11:46.646Z,7.10
2022-09-10T00:12:48.767Z,6.20
2022-09-10T00:13:50.647Z,6.70
2022-09-10T00:14:53.529Z,7.10
2022-09-10T00:15:57.048Z,6.60
2022-09-10T00:16:58.786Z,6.40
2022-09-10T00:18:00.605Z,6.00
2022-09-10T00:19:02.725Z,6.00
2022-09-10T00:20:05.058Z,6.10
2022-09-10T00:21:10.522Z,6.30
2022-09-10T00:22:16.644Z,6.30
2022-09-10T00:23:23.892Z,6.50
2022-09-10T00:24:25.944Z,6.70
2022-09-10T00:25:32.272Z,6.20
2022-09-10T00:26:38.364Z,6.20
2022-09-10T00:27:40.861Z,6.70
2022-09-10T00:28:44.023Z,6.50
2022-09-10T00:29:45.693Z,6.50
2022-09-10T00:30:50.966Z,6.20
2022-09-10T00:31:53.194Z,6.40
2022-09-10T00:32:55.589Z,6.40
2022-09-10T00:33:59.137Z,7.00
2022-09-10T00:35:01.736Z,7.10
2022-09-10T00:36:05.721Z,6.80
2022-09-10T00:37:07.668Z,6.90
2022-09-10T00:38:11.563Z,6.70
2022-09-10T00:39:17.048Z,7.10
2022-09-10T00:40:19.858Z,7.10
2022-09-10T00:41:23.141Z,7.10
2022-09-10T00:42:26.105Z,7.10
2022-09-10T00:43:46.042Z,7.10
2022-09-10T00:44:47.869Z,7.10
2022-09-10T00:45:55.308Z,7.10
2022-09-10T00:46:57.371Z,7.70
2022-09-10T00:48:03.155Z,7.70
2022-09-10T00:49:15.347Z,8.10
2022-09-10T00:50:26.067Z,8.60
2022-09-10T00:51:31.165Z,8.50
2022-09-10T00:52:38.926Z,8.70
2022-09-10T00:53:43.161Z,9.10
2022-09-10T00:54:46.800Z,8.70
2022-09-10T00:55:50.835Z,8.20
2022-09-10T00:56:55.261Z,8.20
2022-09-10T00:58:00.564Z,8.20
2022-09-10T00:59:04.588Z,8.30
2022-09-10T01:00:11.746Z,8.40
2022-09-10T01:01:13.597Z,8.50
2022-09-10T01:02:15.350Z,8.40
2022-09-10T01:03:19.722Z,8.90
2022-09-10T01:04:23.612Z,8.90
2022-09-10T01:05:26.400Z,9.60
2022-09-10T01:06:29.138Z,9.70
2022-09-10T01:07:33.033Z,9.80
2022-09-10T01:08:34.904Z,10.00
2022-09-10T01:09:38.904Z,10.80
2022-09-10T01:11:08.784Z,11.60
2022-09-10T01:12:45.240Z,12.00
2022-09-10T01:14:16.227Z,12.30
2022-09-10T01:15:41.019Z,11.90
2022-09-10T01:17:11.845Z,11.10
2022-09-10T01:18:39.348Z,11.10
2022-09-10T01:20:08.454Z,12.40
2022-09-10T01:21:14.337Z,13.00
2022-09-10T01:22:37.601Z,12.60
2022-09-10T01:24:16.676Z,12.20
2022-09-10T01:25:56.828Z,12.30
2022-09-10T01:27:27.129Z,12.50
2022-09-10T01:28:39.231Z,13.10
2022-09-10T01:29:40.942Z,13.80
2022-09-10T01:30:47.251Z,13.50
2022-09-10T01:31:53.640Z,13.80
2022-09-10T01:33:23.873Z,13.80
2022-09-10T01:34:32.831Z,14.50
2022-09-10T01:36:03.349Z,13.60
2022-09-10T01:37:10.024Z,14.10
2022-09-10T01:38:20.595Z,14.60
2022-09-10T01:39:24.698Z,14.10
2022-09-10T01:40:31.175Z,14.50
2022-09-10T01:41:32.950Z,14.60
2022-09-10T01:42:39.544Z,15.10
2022-09-10T01:43:42.044Z,15.60
2022-09-10T01:44:51.086Z,15.90
2022-09-10T01:46:11.514Z,16.40
2022-09-10T01:47:27.847Z,15.70
2022-09-10T01:49:19.475Z,15.30
2022-09-10T01:50:30.246Z,15.90
2022-09-10T01:51:56.365Z,15.60
2022-09-10T01:53:22.960Z,16.30
2022-09-10T01:54:28.481Z,15.90
2022-09-10T01:56:10.971Z,16.00
2022-09-10T01:57:24.714Z,16.10
2022-09-10T01:58:43.904Z,16.40
2022-09-10T02:00:03.255Z,16.80
2022-09-10T02:01:24.104Z,16.40
2022-09-10T02:02:33.778Z,15.90
2022-09-10T02:03:37.993Z,16.10
2022-09-10T02:04:41.315Z,15.70
2022-09-10T02:05:47.557Z,15.60
2022-09-10T02:06:51.144Z,16.00
2022-09-10T02:08:02.112Z,16.10
2022-09-10T02:09:05.479Z,16.60
2022-09-10T02:10:09.119Z,16.00
2022-09-10T02:11:12.897Z,16.30
2022-09-10T02:12:20.116Z,16.20
2022-09-10T02:13:23.195Z,16.00
2022-09-10T02:14:25.015Z,15.70
2022-09-10T02:15:28.899Z,15.90
2022-09-10T02:16:37.937Z,16.30
2022-09-10T02:17:40.911Z,16.10
2022-09-10T02:18:43.329Z,15.70
2022-09-10T02:19:47.479Z,15.60
2022-09-10T02:20:52.893Z,16.10
2022-09-10T02:21:56.733Z,16.10
2022-09-10T02:23:01.440Z,16.00
2022-09-10T02:24:06.744Z,16.20
2022-09-10T02:25:09.971Z,16.70
2022-09-10T02:26:14.509Z,16.60
2022-09-10T02:27:16.380Z,16.50
2022-09-10T02:28:18.867Z,16.90
2022-09-10T02:29:20.684Z,16.80
2022-09-10T02:30:25.403Z,17.20
2022-09-10T02:31:27.305Z,17.20
2022-09-10T02:32:29.175Z,17.20
2022-09-10T02:33:31.183Z,17.00
2022-09-10T02:34:33.356Z,16.80
2022-09-10T02:35:35.379Z,16.90
2022-09-10T02:36:37.603Z,16.00
2022-09-10T02:37:39.463Z,15.70
2022-09-10T02:38:41.152Z,15.80
2022-09-10T02:39:45.944Z,16.30
2022-09-10T02:40:49.255Z,16.50
2022-09-10T02:41:51.531Z,16.50
2022-09-10T02:42:53.177Z,16.20
2022-09-10T02:43:55.591Z,16.50
2022-09-10T02:44:58.753Z,16.30
2022-09-10T02:46:02.533Z,16.60
2022-09-10T02:47:05.183Z,16.50
2022-09-10T02:48:07.634Z,16.40
2022-09-10T02:49:09.953Z,16.90
2022-09-10T02:50:11.862Z,16.60
2022-09-10T02:51:13.961Z,16.50
2022-09-10T02:52:16.003Z,16.40
2022-09-10T02:53:17.803Z,16.60
2022-09-10T02:54:19.994Z,16.80
2022-09-10T02:55:22.495Z,16.70
2022-09-10T02:56:24.598Z,16.50
2022-09-10T02:57:27.317Z,16.50
2022-09-10T02:58:34.113Z,16.70
2022-09-10T02:59:37.225Z,16.70
2022-09-10T03:00:39.375Z,16.60
2022-09-10T03:01:41.269Z,16.70
2022-09-10T03:02:43.417Z,17.00
2022-09-10T03:03:54.585Z,17.10
2022-09-10T03:04:56.280Z,17.40
2022-09-10T03:05:57.881Z,17.00
2022-09-10T03:06:59.638Z,16.50
2022-09-10T03:08:01.589Z,16.20
2022-09-10T03:09:03.294Z,16.20
2022-09-10T03:10:05.782Z,16.20
2022-09-10T03:11:08.140Z,16.20
2022-09-10T03:12:10.298Z,16.40
2022-09-10T03:13:12.627Z,16.60
2022-09-10T03:14:20.226Z,16.50
2022-09-10T03:15:23.190Z,16.40
2022-09-10T03:16:25.029Z,16.40
2022-09-10T03:17:27.022Z,16.20
2022-09-10T03:18:28.901Z,16.10
2022-09-10T03:19:31.365Z,16.10
2022-09-10T03:20:33.200Z,16.20
2022-09-10T03:21:35.072Z,16.00
2022-09-10T03:22:36.830Z,16.00
2022-09-10T03:23:40.317Z,16.00
2022-09-10T03:24:43.356Z,16.00
2022-09-10T03:25:49.520Z,16.10
2022-09-10T03:26:51.618Z,16.00
2022-09-10T03:27:53.358Z,15.70
2022-09-10T03:28:55.281Z,15.50
2022-09-10T03:29:56.989Z,15.60
2022-09-10T03:30:59.250Z,15.80
2022-09-10T03:32:01.426Z,15.80
2022-09-10T03:33:03.946Z,15.90
2022-09-10T03:34:06.514Z,15.90
2022-09-10T03:35:10.295Z,16.10
2022-09-10T03:36:13.375Z,16.40
2022-09-10T03:37:16.049Z,16.40
2022-09-10T03:38:18.569Z,16.30
2022-09-10T03:39:20.632Z,16.00
2022-09-10T03:40:26.237Z,16.60
2022-09-10T03:41:29.114Z,16.70
2022-09-10T03:42:32.206Z,16.70
2022-09-10T03:43:33.848Z,16.70
2022-09-10T03:44:35.717Z,16.60
2022-09-10T03:45:37.576Z,16.40
2022-09-10T03:46:39.619Z,16.50
2022-09-10T03:47:41.295Z,16.40
2022-09-10T03:48:46.260Z,16.50
2022-09-10T03:49:47.959Z,16.70
2022-09-10T03:50:51.298Z,16.90
2022-09-10T03:51:53.584Z,17.00
2022-09-10T03:52:56.335Z,17.00
2022-09-10T03:53:59.690Z,17.30
2022-09-10T03:55:01.553Z,17.20
2022-09-10T03:56:04.105Z,17.10
2022-09-10T03:57:06.315Z,17.10
2022-09-10T03:58:08.018Z,17.20
2022-09-10T03:59:09.878Z,17.50
2022-09-10T04:00:14.704Z,17.60
2022-09-10T04:01:17.497Z,17.70
2022-09-10T04:02:19.317Z,18.00
2022-09-10T04:03:21.160Z,18.20
2022-09-10T04:04:22.948Z,18.30
2022-09-10T04:05:27.787Z,17.50
2022-09-10T04:06:32.671Z,17.50
2022-09-10T04:07:34.990Z,17.30
2022-09-10T04:08:37.587Z,17.50
2022-09-10T04:09:39.578Z,17.60
2022-09-10T04:10:43.285Z,18.00
2022-09-10T04:11:45.197Z,18.20
2022-09-10T04:12:53.198Z,18.40
2022-09-10T04:13:56.343Z,18.10
2022-09-10T04:14:58.208Z,17.80
2022-09-10T04:16:03.360Z,17.60
2022-09-10T04:17:05.795Z,17.50
2022-09-10T04:18:08.587Z,17.20
2022-09-10T04:19:10.542Z,17.40
2022-09-10T04:20:12.532Z,17.20
2022-09-10T04:21:14.352Z,17.40
2022-09-10T04:22:15.990Z,17.80
2022-09-10T04:23:17.714Z,17.90
2022-09-10T04:24:19.831Z,18.00
2022-09-10T04:25:21.706Z,18.20
2022-09-10T04:26:23.554Z,18.20
2022-09-10T04:27:26.810Z,18.20
2022-09-10T04:28:28.518Z,18.30
2022-09-10T04:29:31.611Z,17.90
2022-09-10T04:30:33.464Z,17.70
2022-09-10T04:31:35.687Z,17.60
2022-09-10T04:32:37.544Z,17.50
2022-09-10T04:33:40.113Z,17.60
2022-09-10T04:34:43.089Z,17.40
2022-09-10T04:35:45.808Z,17.30
2022-09-10T04:36:47.464Z,17.40
2022-09-10T04:37:49.357Z,17.40
2022-09-10T04:38:51.369Z,17.40
2022-09-10T04:39:53.384Z,17.60
2022-09-10T04:40:55.444Z,17.80
2022-09-10T04:41:58.041Z,17.80
2022-09-10T04:42:59.681Z,17.70
2022-09-10T04:44:01.580Z,17.30
2022-09-10T04:45:03.773Z,17.50
2022-09-10T04:46:05.869Z,17.70
2022-09-10T04:47:07.607Z,17.60
2022-09-10T04:48:09.459Z,17.60
2022-09-10T04:49:11.363Z,17.40
2022-09-10T04:50:15.694Z,17.40
2022-09-10T04:51:18.256Z,17.60
2022-09-10T04:52:22.903Z,17.30
2022-09-10T04:53:25.619Z,17.20
2022-09-10T04:54:27.306Z,16.90
2022-09-10T04:55:31.422Z,17.00
2022-09-10T04:56:33.402Z,17.10
2022-09-10T04:57:36.290Z,17.00
2022-09-10T04:58:39.310Z,17.00
2022-09-10T04:59:41.611Z,16.80
2022-09-10T05:00:43.308Z,16.90
2022-09-10T05:01:45.155Z,16.90
2022-09-10T05:02:46.855Z,16.80
2022-09-10T05:03:48.720Z,16.60
2022-09-10T05:04:51.093Z,16.70
2022-09-10T05:05:52.904Z,16.70
2022-09-10T05:06:54.600Z,17.00
2022-09-10T05:07:56.374Z,17.20
2022-09-10T05:08:58.493Z,16.90
2022-09-10T05:10:00.485Z,16.90
2022-09-10T05:11:02.940Z,16.80
2022-09-10T05:12:05.179Z,17.00
2022-09-10T05:13:07.604Z,17.00
2022-09-10T05:14:09.580Z,17.00
2022-09-10T05:15:11.625Z,17.20
2022-09-10T05:16:13.755Z,17.40
2022-09-10T05:17:15.498Z,17.10
2022-09-10T05:18:17.225Z,17.10
2022-09-10T05:19:19.270Z,17.40
2022-09-10T05:20:21.100Z,17.50
2022-09-10T05:21:22.739Z,17.40
2022-09-10T05:22:24.422Z,17.20
2022-09-10T05:23:26.500Z,17.20
2022-09-10T05:24:28.649Z,17.20
2022-09-10T05:25:30.545Z,16.90
2022-09-10T05:26:32.575Z,17.00
2022-09-10T05:27:34.832Z,16.90
2022-09-10T05:28:37.078Z,17.10
2022-09-10T05:29:38.709Z,17.10
2022-09-10T05:30:40.386Z,17.20
2022-09-10T05:31:42.344Z,17.30
2022-09-10T05:32:44.368Z,17.20
2022-09-10T05:33:46.283Z,17.50
2022-09-10T05:34:48.694Z,17.20
2022-09-10T05:35:53.479Z,17.50
2022-09-10T05:36:56.551Z,18.10
2022-09-10T05:37:58.420Z,18.10
2022-09-10T05:39:00.834Z,17.80
2022-09-10T05:40:09.170Z,17.30
2022-09-10T05:41:11.503Z,17.30
2022-09-10T05:42:13.334Z,16.90
2022-09-10T05:43:15.528Z,16.80
2022-09-10T05:44:17.590Z,17.10
2022-09-10T05:45:20.335Z,17.10
2022-09-10T05:46:22.494Z,16.60
2022-09-10T05:47:24.264Z,16.70
2022-09-10T05:48:26.488Z,17.50
2022-09-10T05:49:29.940Z,17.10
2022-09-10T05:50:31.654Z,16.30
2022-09-10T05:51:33.353Z,16.00
2022-09-10T05:52:35.379Z,16.20
2022-09-10T05:53:38.374Z,16.10
2022-09-10T05:54:40.332Z,16.50
2022-09-10T05:56:00.862Z,16.50
2022-09-10T05:57:02.656Z,16.50
2022-09-10T05:58:04.664Z,16.50
2022-09-10T05:59:06.522Z,16.30
2022-09-10T06:00:09.422Z,16.10
2022-09-10T06:01:11.426Z,16.40
2022-09-10T06:02:23.210Z,16.50
2022-09-10T06:03:25.956Z,16.90
2022-09-10T06:04:27.749Z,17.40
2022-09-10T06:05:29.435Z,17.20
2022-09-10T06:06:32.389Z,16.80
2022-09-10T06:07:34.811Z,16.90
2022-09-10T06:08:36.976Z,16.70
2022-09-10T06:09:38.818Z,16.60
2022-09-10T06:10:40.558Z,16.50
2022-09-10T06:11:43.036Z,16.30
2022-09-10T06:12:51.247Z,16.40
2022-09-10T06:13:53.391Z,16.30
2022-09-10T06:14:55.383Z,16.10
2022-09-10T06:15:57.692Z,16.10
2022-09-10T06:16:59.399Z,16.20
2022-09-10T06:18:01.901Z,15.90
2022-09-10T06:19:03.897Z,15.90
2022-09-10T06:20:06.360Z,16.10
2022-09-10T06:21:13.726Z,16.30
2022-09-10T06:22:15.557Z,16.10
2022-09-10T06:23:18.219Z,16.30
2022-09-10T06:24:20.006Z,16.20
2022-09-10T06:25:21.690Z,15.80
2022-09-10T06:26:23.587Z,15.10
2022-09-10T06:27:25.421Z,14.90
2022-09-10T06:28:28.541Z,15.20
2022-09-10T06:29:30.653Z,15.40
2022-09-10T06:30:32.800Z,15.20
2022-09-10T06:31:34.886Z,15.00
2022-09-10T06:32:36.634Z,15.30
2022-09-10T06:33:38.333Z,15.20
2022-09-10T06:34:40.050Z,14.90
2022-09-10T06:35:41.725Z,15.00
2022-09-10T06:36:43.751Z,15.00
2022-09-10T06:37:45.648Z,14.50
2022-09-10T06:38:49.436Z,14.50
2022-09-10T06:39:51.163Z,14.50
2022-09-10T06:40:55.358Z,14.50
2022-09-10T06:41:57.126Z,14.50
2022-09-10T06:43:01.836Z,14.50
2022-09-10T06:44:03.886Z,14.50
2022-09-10T06:45:06.587Z,14.50
2022-09-10T06:46:32.023Z,14.50
2022-09-10T06:48:32.378Z,14.50
2022-09-10T06:48:55.093Z,14.50
2022-09-10T06:49:57.299Z,14.50
2022-09-10T06:50:59.910Z,14.50
2022-09-10T06:52:02.054Z,14.50
2022-09-10T06:53:03.702Z,14.20
2022-09-10T06:54:06.429Z,14.10
2022-09-10T06:55:13.006Z,14.10
2022-09-10T06:56:15.328Z,13.60
2022-09-10T06:57:18.024Z,13.00
2022-09-10T06:58:22.163Z,13.60
2022-09-10T06:59:23.903Z,13.80
2022-09-10T07:00:25.711Z,14.30
2022-09-10T07:01:28.000Z,14.00
2022-09-10T07:02:31.259Z,13.60
2022-09-10T07:03:33.306Z,13.90
2022-09-10T07:04:35.138Z,13.80
2022-09-10T07:05:37.007Z,12.30
2022-09-10T07:06:39.125Z,12.00
2022-09-10T07:07:41.096Z,12.20
2022-09-10T07:08:43.330Z,12.20
2022-09-10T07:09:45.895Z,11.20
2022-09-10T07:10:47.591Z,11.60
2022-09-10T07:11:49.554Z,11.50
2022-09-10T07:12:51.436Z,11.90
2022-09-10T07:13:54.735Z,12.20
2022-09-10T07:14:56.580Z,11.40
2022-09-10T07:15:59.161Z,12.10
2022-09-10T07:17:01.461Z,12.60
2022-09-10T07:18:03.795Z,12.00
2022-09-10T07:19:05.525Z,11.70
2022-09-10T07:20:08.446Z,11.90
2022-09-10T07:21:15.631Z,12.10
2022-09-10T07:22:17.495Z,12.40
2022-09-10T07:23:21.735Z,12.40
2022-09-10T07:24:23.607Z,12.40
2022-09-10T07:25:26.620Z,12.20
2022-09-10T07:26:28.938Z,12.40
2022-09-10T07:27:31.324Z,12.30
2022-09-10T07:28:33.125Z,12.40
2022-09-10T07:29:35.365Z,12.30
2022-09-10T07:30:39.782Z,12.00
2022-09-10T07:31:41.832Z,12.40
2022-09-10T07:32:46.769Z,12.50
2022-09-10T07:33:53.007Z,12.90
2022-09-10T07:34:56.156Z,12.90
2022-09-10T07:36:01.082Z,12.40
2022-09-10T07:37:03.066Z,12.00
2022-09-10T07:38:38.957Z,12.30
2022-09-10T07:39:40.823Z,12.60
2022-09-10T07:40:43.816Z,12.00
2022-09-10T07:41:46.873Z,12.70
2022-09-10T07:42:48.754Z,12.50
2022-09-10T07:43:54.354Z,12.60
2022-09-10T07:44:56.078Z,12.30
2022-09-10T07:46:02.249Z,12.40
2022-09-10T07:47:05.969Z,12.40
2022-09-10T07:48:07.750Z,12.40
2022-09-10T07:49:09.765Z,12.00
2022-09-10T07:50:12.089Z,12.30
2022-09-10T07:51:14.171Z,11.90
2022-09-10T07:52:15.869Z,11.30
2022-09-10T07:53:17.905Z,11.40
2022-09-10T07:54:19.973Z,11.30
2022-09-10T07:55:23.516Z,11.60
2022-09-10T07:56:28.206Z,10.80
2022-09-10T07:57:31.357Z,10.80
2022-09-10T07:58:36.233Z,10.80
2022-09-10T07:59:38.266Z,10.90
2022-09-10T08:00:40.062Z,10.60
2022-09-10T08:01:42.146Z,10.90
2022-09-10T08:02:45.123Z,10.90
2022-09-10T08:03:47.200Z,11.00
2022-09-10T08:04:48.914Z,11.00
2022-09-10T08:05:51.044Z,11.10
2022-09-10T08:06:52.742Z,10.20
2022-09-10T08:07:55.606Z,10.00
2022-09-10T08:09:00.343Z,9.40
2022-09-10T08:10:05.700Z,9.30
2022-09-10T08:11:15.766Z,9.40
2022-09-10T08:12:18.278Z,9.40
2022-09-10T08:13:20.733Z,8.30
2022-09-10T08:14:22.844Z,8.20
2022-09-10T08:15:24.617Z,8.10
2022-09-10T08:16:27.471Z,8.10
2022-09-10T08:17:34.096Z,9.00
2022-09-10T08:18:37.393Z,7.50
2022-09-10T08:19:41.734Z,8.00
2022-09-10T08:20:43.693Z,7.70
2022-09-10T08:21:45.874Z,7.90
2022-09-10T08:22:49.650Z,7.20
2022-09-10T08:23:57.492Z,7.50
2022-09-10T08:24:59.938Z,6.60
2022-09-10T08:26:01.845Z,6.30
2022-09-10T08:27:04.209Z,6.80
2022-09-10T08:28:06.700Z,6.60
2022-09-10T08:29:09.035Z,6.80
2022-09-10T08:30:11.636Z,6.80
2022-09-10T08:31:15.054Z,7.30
2022-09-10T08:32:17.014Z,7.30
2022-09-10T08:33:18.704Z,7.80
2022-09-10T08:34:20.607Z,7.60
2022-09-10T08:35:22.356Z,8.00
2022-09-10T08:36:26.085Z,7.50
2022-09-10T08:37:29.310Z,7.30
2022-09-10T08:38:33.971Z,7.30
2022-09-10T08:39:36.206Z,7.20
2022-09-10T08:40:43.623Z,6.60
2022-09-10T08:41:58.975Z,6.90
2022-09-10T08:43:02.143Z,7.20
2022-09-10T08:44:18.322Z,6.50
2022-09-10T08:45:23.936Z,5.00
2022-09-10T08:46:31.402Z,4.40
2022-09-10T08:49:44.494Z,5.40
2022-09-10T08:51:01.873Z,4.60
2022-09-10T08:52:29.822Z,4.10
2022-09-10T08:53:44.484Z,4.60
2022-09-10T08:55:13.339Z,3.90
2022-09-10T08:56:20.179Z,3.10
2022-09-10T08:57:31.975Z,3.60
2022-09-10T08:59:03.437Z,3.40
2022-09-10T09:00:11.775Z,3.10
2022-09-10T09:01:27.926Z,3.10
2022-09-10T09:02:48.439Z,3.50
2022-09-10T09:03:55.285Z,3.60
2022-09-10T09:05:07.224Z,2.80
2022-09-10T09:06:27.987Z,3.30
2022-09-10T09:07:39.497Z,2.00
2022-09-10T09:08:49.106Z,2.90
2022-09-10T09:10:00.158Z,1.50
2022-09-10T09:11:29.524Z,2.00
2022-09-10T09:12:45.978Z,1.20
2022-09-10T09:14:07.639Z,1.50
2022-09-10T09:15:19.357Z,1.80
2022-09-10T09:16:40.434Z,1.10
2022-09-10T09:18:23.693Z,1.10
2022-09-10T09:19:29.384Z,1.70
2022-09-10T09:20:43.210Z,2.00
2022-09-10T09:21:51.611Z,1.70
2022-09-10T09:23:02.447Z,1.40
2022-09-10T09:24:19.262Z,1.00
2022-09-10T09:25:47.540Z,1.00
2022-09-10T09:26:50.836Z,1.00
2022-09-10T09:27:56.639Z,1.00
2022-09-10T09:29:11.000Z,1.00
2022-09-10T09:30:20.349Z,1.00
2022-09-10T09:31:39.769Z,1.00
2022-09-10T09:32:44.297Z,1.00
2022-09-10T09:33:49.116Z,1.00
2022-09-10T09:34:57.406Z,1.00
2022-09-10T09:36:03.859Z,1.00
2022-09-10T09:37:26.187Z,1.00
2022-09-10T09:38:37.341Z,1.00
2022-09-10T09:39:47.642Z,1.00
2022-09-10T09:41:06.941Z,1.00
2022-09-10T09:42:34.064Z,1.00
2022-09-10T09:44:01.350Z,1.00
2022-09-10T09:45:24.293Z,1.00
2022-09-10T09:46:28.261Z,1.00
2022-09-10T09:47:31.288Z,1.00
2022-09-10T09:48:38.960Z,1.00
2022-09-10T09:49:41.361Z,1.00
2022-09-10T09:50:46.652Z,1.00
2022-09-10T09:51:50.389Z,1.00
2022-09-10T09:52:59.279Z,1.00
2022-09-10T09:55:39.121Z,1.00
2022-09-10T09:56:47.753Z,1.00
2022-09-10T09:58:12.732Z,1.00
2022-09-10T09:59:35.092Z,1.00
2022-09-10T10:00:38.189Z,1.00
2022-09-10T10:01:42.857Z,1.00
2022-09-10T10:02:46.058Z,1.00
2022-09-10T10:03:48.693Z,1.00
2022-09-10T10:05:13.639Z,1.00
2022-09-10T10:06:17.220Z,1.00
2022-09-10T10:07:26.121Z,1.00
2022-09-10T10:08:38.025Z,1.00
2022-09-10T10:09:44.780Z,1.00
2022-09-10T10:10:51.944Z,1.00
2022-09-10T10:11:59.696Z,1.00
2022-09-10T10:13:01.385Z,1.00
2022-09-10T10:14:21.509Z,1.00
2022-09-10T10:15:39.837Z,1.00
2022-09-10T10:16:41.841Z,1.00
2022-09-10T10:17:43.822Z,1.00
2022-09-10T10:18:46.299Z,1.00
2022-09-10T10:20:03.057Z,1.00
2022-09-10T10:21:14.828Z,1.00
2022-09-10T10:22:19.886Z,1.00
2022-09-10T10:23:48.563Z,1.00
2022-09-10T10:24:52.591Z,1.00
2022-09-10T10:25:55.725Z,1.00
2022-09-10T10:26:58.758Z,1.00
2022-09-10T10:28:01.147Z,1.00
2022-09-10T10:29:06.620Z,1.00
2022-09-10T10:30:20.919Z,1.00
2022-09-10T10:31:23.922Z,1.00
2022-09-10T10:32:36.703Z,1.00
2022-09-10T10:33:48.954Z,1.00
2022-09-10T10:35:33.143Z,1.00
2022-09-10T10:36:46.102Z,1.00
2022-09-10T10:38:22.880Z,1.00
2022-09-10T10:39:34.326Z,1.00
2022-09-10T10:40:43.564Z,1.00
2022-09-10T10:41:50.927Z,1.00
2022-09-10T10:43:05.169Z,1.00
2022-09-10T10:44:32.611Z,1.00
2022-09-10T10:45:49.735Z,1.00
2022-09-10T10:47:19.567Z,1.00
2022-09-10T10:48:34.687Z,1.00
2022-09-10T10:49:50.844Z,1.00
2022-09-10T10:50:53.127Z,1.00
2022-09-10T10:52:24.441Z,1.00
2022-09-10T10:53:57.415Z,1.00
2022-09-10T10:55:19.060Z,1.00
2022-09-10T10:56:38.010Z,1.00
2022-09-10T10:58:01.764Z,1.00
2022-09-10T10:59:09.576Z,1.00
2022-09-10T11:00:17.397Z,1.00
2022-09-10T11:01:24.749Z,1.00
2022-09-10T11:02:42.755Z,1.00
2022-09-10T11:04:01.979Z,1.10
2022-09-10T11:05:26.076Z,1.00
2022-09-10T11:06:39.608Z,1.20
2022-09-10T11:07:43.714Z,1.00
2022-09-10T11:08:57.535Z,1.00
2022-09-10T11:10:04.730Z,1.00
2022-09-10T11:11:14.881Z,1.00
2022-09-10T11:12:31.777Z,1.00
2022-09-10T11:13:41.222Z,1.00
2022-09-10T11:14:51.575Z,1.00
2022-09-10T11:16:20.403Z,1.00
2022-09-10T11:17:38.559Z,1.00
2022-09-10T11:19:07.949Z,1.00
2022-09-10T11:20:28.952Z,1.00
2022-09-10T11:21:58.936Z,1.00
2022-09-10T11:23:22.866Z,1.00
2022-09-10T11:24:53.081Z,1.00
2022-09-10T11:26:03.978Z,1.00
2022-09-10T11:27:24.267Z,1.00
2022-09-10T11:28:49.986Z,1.00
2022-09-10T11:30:17.661Z,1.00
2022-09-10T11:31:31.882Z,1.00
2022-09-10T11:32:42.804Z,1.00
2022-09-10T11:34:05.788Z,1.00
2022-09-10T11:35:14.336Z,1.00
2022-09-10T11:36:26.899Z,1.00
2022-09-10T11:38:01.241Z,1.00
2022-09-10T11:39:35.415Z,1.00
2022-09-10T11:40:59.026Z,1.00
2022-09-10T11:42:10.467Z,1.00
2022-09-10T11:43:19.873Z,1.00
2022-09-10T11:44:27.570Z,1.00
2022-09-10T11:45:42.859Z,1.00
2022-09-10T11:47:01.515Z,1.00
2022-09-10T11:48:23.524Z,1.00
2022-09-10T11:50:01.206Z,1.00
2022-09-10T11:51:13.712Z,1.00
2022-09-10T11:52:19.271Z,1.00
2022-09-10T11:53:23.262Z,1.00
2022-09-10T11:54:29.251Z,1.00
2022-09-10T11:56:00.192Z,1.00
2022-09-10T11:57:06.629Z,1.00
2022-09-10T11:58:31.126Z,1.00
2022-09-10T12:00:00.021Z,1.00
2022-09-10T12:01:46.436Z,1.00
2022-09-10T12:03:10.186Z,1.00
2022-09-10T12:04:22.216Z,1.00
2022-09-10T12:05:38.054Z,1.00
2022-09-10T12:06:50.460Z,1.00
2022-09-10T12:08:44.086Z,1.00
2022-09-10T12:10:14.208Z,1.00
2022-09-10T12:11:48.519Z,1.00
2022-09-10T12:12:51.075Z,1.00
2022-09-10T12:13:53.303Z,1.00
2022-09-10T12:14:56.170Z,1.00
2022-09-10T12:16:06.234Z,1.00
2022-09-10T12:17:17.314Z,1.00
2022-09-10T12:18:23.379Z,1.00
2022-09-10T12:19:27.024Z,1.00
2022-09-10T12:20:42.725Z,1.00
2022-09-10T12:22:01.732Z,1.00
2022-09-10T12:23:07.068Z,1.00
2022-09-10T12:24:33.818Z,1.00
2022-09-10T12:25:35.731Z,1.00
2022-09-10T12:26:45.037Z,1.00
2022-09-10T12:28:07.733Z,1.00
2022-09-10T12:29:31.035Z,1.00
2022-09-10T12:30:33.708Z,1.00
2022-09-10T12:32:15.997Z,1.00
2022-09-10T12:33:18.727Z,1.00
2022-09-10T12:34:22.459Z,1.00
2022-09-10T12:35:34.775Z,1.00
2022-09-10T12:36:39.885Z,1.00
2022-09-10T12:37:41.577Z,1.00
2022-09-10T12:39:25.463Z,1.00
2022-09-10T12:40:27.306Z,1.00
2022-09-10T12:41:28.953Z,1.00
2022-09-10T12:42:33.505Z,1.00
2022-09-10T12:43:41.061Z,1.00
2022-09-10T12:44:42.753Z,1.00
2022-09-10T12:46:16.624Z,1.00
2022-09-10T12:47:18.250Z,1.00
2022-09-10T12:48:22.846Z,1.00
2022-09-10T12:49:26.991Z,1.00
2022-09-10T12:50:35.232Z,1.00
2022-09-10T12:51:56.794Z,1.00
2022-09-10T12:53:37.807Z,1.00
2022-09-10T12:55:10.121Z,1.00
2022-09-10T12:56:23.791Z,1.00
2022-09-10T12:57:43.684Z,1.00
2022-09-10T12:59:19.870Z,1.00
2022-09-10T13:00:30.605Z,1.00
2022-09-10T13:01:46.344Z,1.00
2022-09-10T13:03:15.547Z,1.00
2022-09-10T13:04:35.797Z,1.00
2022-09-10T13:05:47.671Z,1.00
2022-09-10T13:06:49.952Z,1.00
2022-09-10T13:08:26.754Z,1.00
2022-09-10T13:09:33.041Z,1.00
2022-09-10T13:10:35.071Z,1.00
2022-09-10T13:11:36.927Z,1.00
2022-09-10T13:12:42.876Z,1.00
2022-09-10T13:13:59.598Z,1.00
2022-09-10T13:15:02.801Z,1.00
2022-09-10T13:16:06.248Z,1.00
2022-09-10T13:17:59.919Z,1.00
2022-09-10T13:19:16.206Z,1.00
2022-09-10T13:20:23.554Z,1.00
2022-09-10T13:21:25.376Z,1.00
2022-09-10T13:22:33.450Z,1.00
2022-09-10T13:23:47.795Z,1.00
2022-09-10T13:25:24.332Z,1.00
2022-09-10T13:26:29.148Z,1.00
2022-09-10T13:27:38.992Z,1.00
2022-09-10T13:28:40.942Z,1.00
2022-09-10T13:29:53.694Z,1.00
2022-09-10T13:31:31.306Z,1.00
2022-09-10T13:32:41.547Z,1.00
2022-09-10T13:34:12.121Z,1.00
2022-09-10T13:35:58.465Z,1.00
2022-09-10T13:37:31.813Z,1.00
2022-09-10T13:38:54.175Z,1.00
2022-09-10T13:40:00.484Z,1.00
2022-09-10T13:41:33.321Z,1.00
2022-09-10T13:43:07.763Z,1.00
2022-09-10T13:44:31.462Z,1.00
2022-09-10T13:45:47.941Z,1.00
2022-09-10T13:46:58.761Z,1.00
2022-09-10T13:48:11.006Z,1.00
2022-09-10T13:49:46.127Z,1.00
2022-09-10T13:51:08.488Z,1.00
2022-09-10T13:52:14.066Z,1.00
2022-09-10T13:53:18.900Z,1.00
2022-09-10T13:54:29.514Z,1.00
2022-09-10T13:55:34.112Z,1.00
2022-09-10T13:56:37.111Z,1.00
2022-09-10T13:57:42.861Z,1.00
2022-09-10T13:58:51.354Z,1.00
2022-09-10T14:00:05.056Z,1.00
2022-09-10T14:01:07.574Z,1.00
2022-09-10T14:02:09.429Z,1.00
2022-09-10T14:03:16.655Z,1.00
2022-09-10T14:04:26.527Z,1.00
2022-09-10T14:05:51.521Z,1.00
2022-09-10T14:07:18.365Z,1.00
2022-09-10T14:08:33.272Z,1.00
2022-09-10T14:09:35.504Z,1.00
2022-09-10T14:10:50.358Z,1.00
2022-09-10T14:11:52.553Z,1.00
2022-09-10T14:12:55.875Z,1.00
2022-09-10T14:14:09.657Z,1.00
2022-09-10T14:15:19.823Z,1.00
2022-09-10T14:16:32.042Z,1.00
2022-09-10T14:17:45.178Z,2.10
2022-09-10T14:18:55.809Z,4.40
2022-09-10T14:20:05.438Z,5.50
2022-09-10T14:21:07.783Z,7.50
2022-09-10T14:22:25.946Z,8.00
2022-09-10T14:23:29.513Z,10.00
2022-09-10T14:24:37.261Z,10.00
2022-09-10T14:25:43.568Z,12.00
2022-09-10T14:27:14.787Z,11.30
2022-09-10T14:28:19.758Z,12.00
2022-09-10T14:29:27.884Z,11.00
2022-09-10T14:30:30.205Z,11.40
2022-09-10T14:31:38.378Z,10.70
2022-09-10T14:32:41.067Z,11.10
2022-09-10T14:33:42.725Z,10.70
2022-09-10T14:34:44.461Z,9.90
2022-09-10T14:35:49.554Z,10.70
2022-09-10T14:36:51.363Z,11.00
2022-09-10T14:37:54.176Z,10.70
2022-09-10T14:39:02.668Z,9.80
2022-09-10T14:40:17.931Z,10.20
2022-09-10T14:41:28.296Z,10.40
2022-09-10T14:42:35.474Z,10.90
2022-09-10T14:43:39.013Z,10.80
2022-09-10T14:44:42.781Z,10.20
2022-09-10T14:45:49.863Z,10.00
2022-09-10T14:46:58.317Z,9.80
2022-09-10T14:48:01.196Z,9.90
2022-09-10T14:49:09.455Z,9.90
2022-09-10T14:50:31.270Z,11.00
2022-09-10T14:51:33.109Z,10.80
2022-09-10T14:52:34.787Z,10.60
2022-09-10T14:53:37.299Z,9.20
2022-09-10T14:54:39.284Z,9.30